sensor_id;sensor_type;location;lat;lon;timestamp;pressure;altitude;pressure_sealevel;temperature;humidity
30708;BME280;17458;48.958;8.284;2023-08-24T00:01:17;100378.84;;;27.09;54.83
30708;BME280;17458;48.958;8.284;2023-08-24T00:04:02;100376.94;;;27.11;55.09
30708;BME280;17458;48.958;8.284;2023-08-24T00:06:46;100365.25;;;27.06;54.45
30708;BME280;17458;48.958;8.284;2023-08-24T00:09:30;100363.66;;;26.90;54.91
30708;BME280;17458;48.958;8.284;2023-08-24T00:12:14;100362.97;;;26.77;54.69
30708;BME280;17458;48.958;8.284;2023-08-24T00:14:58;100350.22;;;26.79;54.89
30708;BME280;17458;48.958;8.284;2023-08-24T00:17:42;100359.13;;;26.90;53.19
30708;BME280;17458;48.958;8.284;2023-08-24T00:20:26;100352.78;;;26.88;54.07
30708;BME280;17458;48.958;8.284;2023-08-24T00:23:10;100368.16;;;26.92;53.16
30708;BME280;17458;48.958;8.284;2023-08-24T00:25:54;100352.63;;;26.99;52.40
30708;BME280;17458;48.958;8.284;2023-08-24T00:28:38;100350.00;;;26.94;52.91
30708;BME280;17458;48.958;8.284;2023-08-24T00:31:23;100350.78;;;27.01;53.05
30708;BME280;17458;48.958;8.284;2023-08-24T00:34:06;100341.50;;;27.12;52.43
30708;BME280;17458;48.958;8.284;2023-08-24T00:36:50;100344.16;;;27.15;52.25
30708;BME280;17458;48.958;8.284;2023-08-24T00:39:34;100343.06;;;27.26;51.77
30708;BME280;17458;48.958;8.284;2023-08-24T00:42:18;100342.69;;;27.47;51.22
30708;BME280;17458;48.958;8.284;2023-08-24T00:45:03;100340.84;;;27.47;50.63
30708;BME280;17458;48.958;8.284;2023-08-24T00:47:48;100344.91;;;27.24;52.40
30708;BME280;17458;48.958;8.284;2023-08-24T00:50:32;100343.25;;;27.15;51.42
30708;BME280;17458;48.958;8.284;2023-08-24T00:53:16;100343.25;;;27.15;52.39
30708;BME280;17458;48.958;8.284;2023-08-24T00:56:03;100352.13;;;27.28;51.80
30708;BME280;17458;48.958;8.284;2023-08-24T00:58:48;100353.81;;;26.81;52.08
30708;BME280;17458;48.958;8.284;2023-08-24T01:01:32;100361.50;;;26.53;52.90
30708;BME280;17458;48.958;8.284;2023-08-24T01:04:17;100356.09;;;26.52;53.10
30708;BME280;17458;48.958;8.284;2023-08-24T01:07:02;100353.50;;;26.42;53.75
30708;BME280;17458;48.958;8.284;2023-08-24T01:09:47;100353.94;;;26.10;54.87
30708;BME280;17458;48.958;8.284;2023-08-24T01:15:58;100361.09;;;26.16;55.00
30708;BME280;17458;48.958;8.284;2023-08-24T01:18:45;100358.53;;;26.05;55.20
30708;BME280;17458;48.958;8.284;2023-08-24T01:21:29;100356.72;;;26.03;55.39
30708;BME280;17458;48.958;8.284;2023-08-24T01:24:27;100366.47;;;26.22;55.39
30708;BME280;17458;48.958;8.284;2023-08-24T01:27:15;100348.22;;;26.30;54.82
30708;BME280;17458;48.958;8.284;2023-08-24T01:29:59;100363.69;;;26.28;54.85
30708;BME280;17458;48.958;8.284;2023-08-24T01:32:43;100359.69;;;25.83;55.62
30708;BME280;17458;48.958;8.284;2023-08-24T01:35:27;100364.88;;;26.04;55.64
30708;BME280;17458;48.958;8.284;2023-08-24T01:38:11;100375.53;;;26.24;55.32
30708;BME280;17458;48.958;8.284;2023-08-24T01:41:10;100368.69;;;25.90;56.17
30708;BME280;17458;48.958;8.284;2023-08-24T01:43:57;100366.69;;;26.05;56.05
30708;BME280;17458;48.958;8.284;2023-08-24T01:46:42;100367.63;;;26.03;55.89
30708;BME280;17458;48.958;8.284;2023-08-24T01:49:29;100360.25;;;26.11;55.18
30708;BME280;17458;48.958;8.284;2023-08-24T01:52:13;100360.09;;;26.23;55.42
30708;BME280;17458;48.958;8.284;2023-08-24T01:54:58;100358.19;;;26.31;54.70
30708;BME280;17458;48.958;8.284;2023-08-24T01:57:42;100353.78;;;26.21;54.67
30708;BME280;17458;48.958;8.284;2023-08-24T02:00:27;100363.81;;;26.16;54.78
30708;BME280;17458;48.958;8.284;2023-08-24T02:03:12;100359.03;;;25.58;55.74
30708;BME280;17458;48.958;8.284;2023-08-24T02:05:56;100360.50;;;25.93;55.46
30708;BME280;17458;48.958;8.284;2023-08-24T02:08:40;100366.75;;;25.98;55.36
30708;BME280;17458;48.958;8.284;2023-08-24T02:11:24;100357.81;;;25.88;55.64
30708;BME280;17458;48.958;8.284;2023-08-24T02:14:08;100364.09;;;25.96;55.88
30708;BME280;17458;48.958;8.284;2023-08-24T02:16:55;100360.19;;;26.17;55.48
30708;BME280;17458;48.958;8.284;2023-08-24T02:19:39;100361.13;;;26.13;55.35
30708;BME280;17458;48.958;8.284;2023-08-24T02:22:23;100356.13;;;25.80;55.62
30708;BME280;17458;48.958;8.284;2023-08-24T02:25:09;100357.22;;;25.65;56.53
30708;BME280;17458;48.958;8.284;2023-08-24T02:27:53;100356.13;;;25.81;55.98
30708;BME280;17458;48.958;8.284;2023-08-24T02:30:38;100349.72;;;25.84;55.75
30708;BME280;17458;48.958;8.284;2023-08-24T02:33:23;100345.94;;;25.97;55.70
30708;BME280;17458;48.958;8.284;2023-08-24T02:36:07;100347.72;;;25.98;55.40
30708;BME280;17458;48.958;8.284;2023-08-24T02:38:50;100347.50;;;25.36;56.23
30708;BME280;17458;48.958;8.284;2023-08-24T02:41:35;100366.31;;;25.55;56.24
30708;BME280;17458;48.958;8.284;2023-08-24T02:44:19;100352.69;;;25.61;56.23
30708;BME280;17458;48.958;8.284;2023-08-24T02:47:04;100336.31;;;25.68;56.24
30708;BME280;17458;48.958;8.284;2023-08-24T02:49:48;100311.56;;;25.90;55.46
30708;BME280;17458;48.958;8.284;2023-08-24T02:52:32;100319.59;;;25.97;55.29
30708;BME280;17458;48.958;8.284;2023-08-24T02:55:16;100297.91;;;25.93;55.64
30708;BME280;17458;48.958;8.284;2023-08-24T02:58:00;100293.97;;;26.15;54.68
30708;BME280;17458;48.958;8.284;2023-08-24T03:00:44;100301.91;;;26.32;54.14
30708;BME280;17458;48.958;8.284;2023-08-24T03:03:28;100309.59;;;26.01;54.49
30708;BME280;17458;48.958;8.284;2023-08-24T03:06:12;100299.19;;;25.60;55.19
30708;BME280;17458;48.958;8.284;2023-08-24T03:09:00;100297.41;;;25.62;55.56
30708;BME280;17458;48.958;8.284;2023-08-24T03:11:45;100288.56;;;25.40;56.35
30708;BME280;17458;48.958;8.284;2023-08-24T03:14:29;100283.22;;;25.32;56.65
30708;BME280;17458;48.958;8.284;2023-08-24T03:17:14;100277.91;;;25.20;56.46
30708;BME280;17458;48.958;8.284;2023-08-24T03:19:58;100262.31;;;25.37;56.55
30708;BME280;17458;48.958;8.284;2023-08-24T03:22:42;100265.63;;;25.67;55.94
30708;BME280;17458;48.958;8.284;2023-08-24T03:25:27;100270.75;;;25.88;55.23
30708;BME280;17458;48.958;8.284;2023-08-24T03:28:11;100266.41;;;24.95;57.13
30708;BME280;17458;48.958;8.284;2023-08-24T03:30:55;100259.03;;;25.06;57.19
30708;BME280;17458;48.958;8.284;2023-08-24T03:33:40;100248.72;;;25.39;56.64
30708;BME280;17458;48.958;8.284;2023-08-24T03:36:24;100245.13;;;25.34;56.22
30708;BME280;17458;48.958;8.284;2023-08-24T03:39:08;100244.00;;;24.67;57.87
30708;BME280;17458;48.958;8.284;2023-08-24T03:41:52;100239.09;;;25.09;57.44
30708;BME280;17458;48.958;8.284;2023-08-24T03:44:36;100230.69;;;25.27;56.78
30708;BME280;17458;48.958;8.284;2023-08-24T03:47:20;100223.25;;;25.43;56.57
30708;BME280;17458;48.958;8.284;2023-08-24T03:50:04;100226.78;;;25.54;55.74
30708;BME280;17458;48.958;8.284;2023-08-24T03:52:50;100221.81;;;25.85;55.51
30708;BME280;17458;48.958;8.284;2023-08-24T03:55:34;100230.59;;;26.05;54.41
30708;BME280;17458;48.958;8.284;2023-08-24T03:58:18;100217.16;;;25.95;54.44
30708;BME280;17458;48.958;8.284;2023-08-24T04:01:02;100217.50;;;25.70;54.77
30708;BME280;17458;48.958;8.284;2023-08-24T04:03:47;100233.41;;;25.29;55.80
30708;BME280;17458;48.958;8.284;2023-08-24T04:06:31;100232.91;;;24.87;57.15
30708;BME280;17458;48.958;8.284;2023-08-24T04:09:15;100227.94;;;24.42;58.52
30708;BME280;17458;48.958;8.284;2023-08-24T04:11:59;100219.91;;;24.26;59.39
30708;BME280;17458;48.958;8.284;2023-08-24T04:14:43;100219.19;;;23.98;60.03
30708;BME280;17458;48.958;8.284;2023-08-24T04:17:27;100218.13;;;24.24;59.65
30708;BME280;17458;48.958;8.284;2023-08-24T04:20:11;100218.13;;;24.16;59.85
30708;BME280;17458;48.958;8.284;2023-08-24T04:22:55;100215.44;;;24.13;60.14
30708;BME280;17458;48.958;8.284;2023-08-24T04:25:40;100214.59;;;24.07;59.98
30708;BME280;17458;48.958;8.284;2023-08-24T04:28:24;100214.63;;;24.00;60.23
30708;BME280;17458;48.958;8.284;2023-08-24T04:31:08;100202.94;;;23.88;61.18
30708;BME280;17458;48.958;8.284;2023-08-24T04:33:52;100200.31;;;23.77;61.41
30708;BME280;17458;48.958;8.284;2023-08-24T04:36:36;100195.72;;;23.88;61.52
30708;BME280;17458;48.958;8.284;2023-08-24T04:39:20;100197.47;;;23.97;61.00
30708;BME280;17458;48.958;8.284;2023-08-24T04:42:05;100194.03;;;23.67;61.57
30708;BME280;17458;48.958;8.284;2023-08-24T04:44:50;100194.88;;;23.77;61.56
30708;BME280;17458;48.958;8.284;2023-08-24T04:47:35;100183.06;;;23.87;60.99
30708;BME280;17458;48.958;8.284;2023-08-24T04:50:19;100179.34;;;24.00;60.67
30708;BME280;17458;48.958;8.284;2023-08-24T04:53:03;100180.06;;;24.30;59.48
30708;BME280;17458;48.958;8.284;2023-08-24T04:55:47;100178.22;;;24.35;59.23
30708;BME280;17458;48.958;8.284;2023-08-24T04:58:33;100169.25;;;24.19;59.39
30708;BME280;17458;48.958;8.284;2023-08-24T05:01:16;100178.41;;;24.06;60.23
30708;BME280;17458;48.958;8.284;2023-08-24T05:04:00;100175.41;;;24.43;59.01
30708;BME280;17458;48.958;8.284;2023-08-24T05:06:44;100173.66;;;24.38;59.29
30708;BME280;17458;48.958;8.284;2023-08-24T05:09:28;100182.59;;;24.50;59.18
30708;BME280;17458;48.958;8.284;2023-08-24T05:12:13;100179.78;;;24.59;58.93
30708;BME280;17458;48.958;8.284;2023-08-24T05:14:57;100190.91;;;24.30;59.72
30708;BME280;17458;48.958;8.284;2023-08-24T05:17:41;100194.41;;;24.44;59.43
30708;BME280;17458;48.958;8.284;2023-08-24T05:20:26;100187.00;;;24.63;58.97
30708;BME280;17458;48.958;8.284;2023-08-24T05:23:10;100186.81;;;24.83;58.67
30708;BME280;17458;48.958;8.284;2023-08-24T05:25:54;100190.38;;;24.85;58.45
30708;BME280;17458;48.958;8.284;2023-08-24T05:28:39;100194.34;;;24.55;58.64
30708;BME280;17458;48.958;8.284;2023-08-24T05:31:23;100193.31;;;24.65;58.64
30708;BME280;17458;48.958;8.284;2023-08-24T05:34:07;100194.41;;;24.46;59.39
30708;BME280;17458;48.958;8.284;2023-08-24T05:36:51;100204.50;;;24.28;59.62
30708;BME280;17458;48.958;8.284;2023-08-24T05:39:35;100220.53;;;24.59;59.40
30708;BME280;17458;48.958;8.284;2023-08-24T05:42:19;100233.13;;;24.66;59.27
30708;BME280;17458;48.958;8.284;2023-08-24T05:45:03;100238.81;;;24.35;60.69
30708;BME280;17458;48.958;8.284;2023-08-24T05:47:48;100253.38;;;24.21;60.55
30708;BME280;17458;48.958;8.284;2023-08-24T05:50:32;100269.59;;;24.34;60.14
30708;BME280;17458;48.958;8.284;2023-08-24T05:53:15;100285.13;;;24.00;61.42
30708;BME280;17458;48.958;8.284;2023-08-24T05:55:59;100302.34;;;23.99;61.82
30708;BME280;17458;48.958;8.284;2023-08-24T05:58:43;100314.13;;;23.98;62.37
30708;BME280;17458;48.958;8.284;2023-08-24T06:01:27;100324.91;;;24.06;62.23
30708;BME280;17458;48.958;8.284;2023-08-24T06:04:11;100315.84;;;24.13;61.65
30708;BME280;17458;48.958;8.284;2023-08-24T06:06:56;100306.75;;;24.19;61.72
30708;BME280;17458;48.958;8.284;2023-08-24T06:09:40;100308.41;;;24.44;60.90
30708;BME280;17458;48.958;8.284;2023-08-24T06:12:24;100315.78;;;24.22;61.38
30708;BME280;17458;48.958;8.284;2023-08-24T06:15:08;100304.03;;;24.20;62.26
30708;BME280;17458;48.958;8.284;2023-08-24T06:17:54;100284.13;;;24.20;62.03
30708;BME280;17458;48.958;8.284;2023-08-24T06:20:38;100295.13;;;23.95;62.48
30708;BME280;17458;48.958;8.284;2023-08-24T06:23:22;100315.16;;;23.64;62.74
30708;BME280;17458;48.958;8.284;2023-08-24T06:26:05;100319.56;;;23.86;62.54
30708;BME280;17458;48.958;8.284;2023-08-24T06:28:49;100312.38;;;23.78;61.42
30708;BME280;17458;48.958;8.284;2023-08-24T06:31:33;100314.94;;;24.11;60.05
30708;BME280;17458;48.958;8.284;2023-08-24T06:34:17;100329.28;;;24.41;60.11
30708;BME280;17458;48.958;8.284;2023-08-24T06:37:01;100319.28;;;24.44;58.90
30708;BME280;17458;48.958;8.284;2023-08-24T06:39:47;100311.22;;;24.29;59.15
30708;BME280;17458;48.958;8.284;2023-08-24T06:42:31;100291.44;;;24.12;58.51
30708;BME280;17458;48.958;8.284;2023-08-24T06:45:15;100292.06;;;24.55;57.48
30708;BME280;17458;48.958;8.284;2023-08-24T06:48:00;100300.31;;;24.41;57.82
30708;BME280;17458;48.958;8.284;2023-08-24T06:50:44;100300.03;;;24.74;56.32
30708;BME280;17458;48.958;8.284;2023-08-24T06:53:29;100311.81;;;24.73;56.23
30708;BME280;17458;48.958;8.284;2023-08-24T06:56:13;100312.84;;;24.57;56.10
30708;BME280;17458;48.958;8.284;2023-08-24T06:58:58;100313.53;;;24.85;55.43
30708;BME280;17458;48.958;8.284;2023-08-24T07:01:42;100311.69;;;24.95;55.22
30708;BME280;17458;48.958;8.284;2023-08-24T07:04:26;100304.44;;;24.88;54.72
30708;BME280;17458;48.958;8.284;2023-08-24T07:07:11;100313.47;;;24.93;54.56
30708;BME280;17458;48.958;8.284;2023-08-24T07:09:55;100315.06;;;25.17;54.05
30708;BME280;17458;48.958;8.284;2023-08-24T07:12:39;100309.69;;;25.95;52.10
30708;BME280;17458;48.958;8.284;2023-08-24T07:15:26;100302.44;;;25.95;51.50
30708;BME280;17458;48.958;8.284;2023-08-24T07:18:10;100306.97;;;25.93;50.99
30708;BME280;17458;48.958;8.284;2023-08-24T07:20:54;100298.72;;;25.99;51.47
30708;BME280;17458;48.958;8.284;2023-08-24T07:23:37;100302.00;;;26.24;50.80
30708;BME280;17458;48.958;8.284;2023-08-24T07:26:21;100304.00;;;26.73;49.33
30708;BME280;17458;48.958;8.284;2023-08-24T07:29:06;100301.47;;;26.61;49.81
30708;BME280;17458;48.958;8.284;2023-08-24T07:31:50;100297.22;;;26.98;47.89
30708;BME280;17458;48.958;8.284;2023-08-24T07:34:34;100299.41;;;26.76;48.48
30708;BME280;17458;48.958;8.284;2023-08-24T07:37:18;100299.97;;;26.97;48.00
30708;BME280;17458;48.958;8.284;2023-08-24T07:40:02;100288.09;;;27.01;47.43
30708;BME280;17458;48.958;8.284;2023-08-24T07:42:49;100291.44;;;27.16;46.73
30708;BME280;17458;48.958;8.284;2023-08-24T07:45:34;100289.53;;;27.22;46.38
30708;BME280;17458;48.958;8.284;2023-08-24T07:48:19;100297.25;;;27.91;46.09
30708;BME280;17458;48.958;8.284;2023-08-24T07:51:03;100301.56;;;27.58;45.87
30708;BME280;17458;48.958;8.284;2023-08-24T07:53:47;100304.75;;;27.79;45.10
30708;BME280;17458;48.958;8.284;2023-08-24T07:56:33;100317.59;;;28.17;44.99
30708;BME280;17458;48.958;8.284;2023-08-24T07:59:17;100313.41;;;28.41;44.79
30708;BME280;17458;48.958;8.284;2023-08-24T08:02:01;100306.97;;;28.45;45.28
30708;BME280;17458;48.958;8.284;2023-08-24T08:04:45;100309.94;;;28.35;46.07
30708;BME280;17458;48.958;8.284;2023-08-24T08:07:29;100307.00;;;28.02;46.37
30708;BME280;17458;48.958;8.284;2023-08-24T08:10:13;100314.38;;;28.39;45.69
30708;BME280;17458;48.958;8.284;2023-08-24T08:12:57;100306.44;;;28.28;45.13
30708;BME280;17458;48.958;8.284;2023-08-24T08:15:41;100311.22;;;28.57;46.52
30708;BME280;17458;48.958;8.284;2023-08-24T08:18:24;100305.97;;;28.49;45.06
30708;BME280;17458;48.958;8.284;2023-08-24T08:21:10;100301.72;;;28.73;44.58
30708;BME280;17458;48.958;8.284;2023-08-24T08:23:57;100304.28;;;28.81;44.45
30708;BME280;17458;48.958;8.284;2023-08-24T08:26:41;100301.22;;;28.93;44.29
30708;BME280;17458;48.958;8.284;2023-08-24T08:29:25;100297.88;;;29.17;43.61
30708;BME280;17458;48.958;8.284;2023-08-24T08:32:09;100299.50;;;28.90;45.31
30708;BME280;17458;48.958;8.284;2023-08-24T08:34:55;100290.00;;;29.05;45.16
30708;BME280;17458;48.958;8.284;2023-08-24T08:37:40;100279.81;;;29.10;44.39
30708;BME280;17458;48.958;8.284;2023-08-24T08:40:25;100283.38;;;29.14;44.04
30708;BME280;17458;48.958;8.284;2023-08-24T08:43:13;100282.94;;;29.29;43.96
30708;BME280;17458;48.958;8.284;2023-08-24T08:45:58;100271.94;;;29.32;43.88
30708;BME280;17458;48.958;8.284;2023-08-24T08:48:45;100254.50;;;29.67;44.48
30708;BME280;17458;48.958;8.284;2023-08-24T08:51:30;100242.34;;;29.14;43.64
30708;BME280;17458;48.958;8.284;2023-08-24T08:54:15;100233.16;;;29.16;44.18
30708;BME280;17458;48.958;8.284;2023-08-24T08:57:01;100227.38;;;29.59;43.67
30708;BME280;17458;48.958;8.284;2023-08-24T08:59:45;100222.28;;;29.77;43.67
30708;BME280;17458;48.958;8.284;2023-08-24T09:02:30;100229.13;;;29.91;42.69
30708;BME280;17458;48.958;8.284;2023-08-24T09:05:16;100224.41;;;30.26;42.82
30708;BME280;17458;48.958;8.284;2023-08-24T09:08:00;100218.97;;;29.95;42.24
30708;BME280;17458;48.958;8.284;2023-08-24T09:10:46;100217.50;;;29.54;43.32
30708;BME280;17458;48.958;8.284;2023-08-24T09:13:31;100206.06;;;29.71;43.33
30708;BME280;17458;48.958;8.284;2023-08-24T09:16:17;100207.34;;;29.59;43.59
30708;BME280;17458;48.958;8.284;2023-08-24T09:19:04;100195.22;;;29.97;43.52
30708;BME280;17458;48.958;8.284;2023-08-24T09:21:49;100195.31;;;30.22;42.82
30708;BME280;17458;48.958;8.284;2023-08-24T09:24:34;100188.25;;;30.43;42.89
30708;BME280;17458;48.958;8.284;2023-08-24T09:27:20;100185.03;;;30.83;42.47
30708;BME280;17458;48.958;8.284;2023-08-24T09:30:05;100170.66;;;30.22;43.08
30708;BME280;17458;48.958;8.284;2023-08-24T09:32:52;100163.50;;;30.18;43.50
30708;BME280;17458;48.958;8.284;2023-08-24T09:35:37;100162.94;;;30.61;43.98
30708;BME280;17458;48.958;8.284;2023-08-24T09:38:22;100156.44;;;30.90;43.20
30708;BME280;17458;48.958;8.284;2023-08-24T09:41:07;100157.38;;;31.62;42.13
30708;BME280;17458;48.958;8.284;2023-08-24T09:43:52;100153.75;;;31.85;41.40
30708;BME280;17458;48.958;8.284;2023-08-24T09:46:38;100138.22;;;31.37;42.31
30708;BME280;17458;48.958;8.284;2023-08-24T09:49:22;100138.53;;;31.29;42.25
30708;BME280;17458;48.958;8.284;2023-08-24T09:52:07;100134.38;;;31.66;42.37
30708;BME280;17458;48.958;8.284;2023-08-24T09:54:52;100134.22;;;31.92;41.21
30708;BME280;17458;48.958;8.284;2023-08-24T09:57:38;100139.19;;;32.28;40.59
30708;BME280;17458;48.958;8.284;2023-08-24T10:00:23;100130.38;;;32.18;41.26
30708;BME280;17458;48.958;8.284;2023-08-24T10:03:10;100124.84;;;32.20;42.12
30708;BME280;17458;48.958;8.284;2023-08-24T10:05:56;100114.66;;;32.44;41.34
30708;BME280;17458;48.958;8.284;2023-08-24T10:08:47;100111.09;;;32.62;41.81
30708;BME280;17458;48.958;8.284;2023-08-24T10:11:35;100106.56;;;32.61;40.70
30708;BME280;17458;48.958;8.284;2023-08-24T10:17:23;100091.66;;;32.66;42.12
30708;BME280;17458;48.958;8.284;2023-08-24T10:20:10;100087.69;;;32.73;41.04
30708;BME280;17458;48.958;8.284;2023-08-24T10:22:55;100082.97;;;33.16;41.37
30708;BME280;17458;48.958;8.284;2023-08-24T10:25:42;100076.38;;;33.00;40.77
30708;BME280;17458;48.958;8.284;2023-08-24T10:28:26;100071.25;;;32.72;41.36
30708;BME280;17458;48.958;8.284;2023-08-24T10:31:11;100050.00;;;32.96;42.02
30708;BME280;17458;48.958;8.284;2023-08-24T10:33:57;100059.09;;;33.17;41.00
30708;BME280;17458;48.958;8.284;2023-08-24T10:36:42;100055.81;;;33.08;42.13
30708;BME280;17458;48.958;8.284;2023-08-24T10:39:27;100050.81;;;33.17;41.40
30708;BME280;17458;48.958;8.284;2023-08-24T10:42:12;100050.34;;;33.46;41.16
30708;BME280;17458;48.958;8.284;2023-08-24T10:44:57;100051.19;;;33.48;41.07
30708;BME280;17458;48.958;8.284;2023-08-24T10:47:45;100047.59;;;33.84;40.26
30708;BME280;17458;48.958;8.284;2023-08-24T10:50:29;100042.53;;;33.56;40.44
30708;BME280;17458;48.958;8.284;2023-08-24T10:53:56;100037.50;;;34.01;40.43
30708;BME280;17458;48.958;8.284;2023-08-24T10:56:39;100035.97;;;33.96;40.98
30708;BME280;17458;48.958;8.284;2023-08-24T10:59:23;100040.94;;;34.41;39.57
30708;BME280;17458;48.958;8.284;2023-08-24T11:02:18;100029.47;;;34.50;38.75
30708;BME280;17458;48.958;8.284;2023-08-24T11:05:06;100030.31;;;34.68;39.56
30708;BME280;17458;48.958;8.284;2023-08-24T11:07:52;100025.66;;;34.35;38.54
30708;BME280;17458;48.958;8.284;2023-08-24T11:13:26;100016.75;;;33.94;40.06
30708;BME280;17458;48.958;8.284;2023-08-24T11:16:43;100013.16;;;34.28;39.18
30708;BME280;17458;48.958;8.284;2023-08-24T11:19:28;100015.66;;;35.00;39.19
30708;BME280;17458;48.958;8.284;2023-08-24T11:22:14;100015.94;;;35.29;38.32
30708;BME280;17458;48.958;8.284;2023-08-24T11:24:58;100005.72;;;35.13;38.85
30708;BME280;17458;48.958;8.284;2023-08-24T11:27:42;100015.13;;;35.42;38.18
30708;BME280;17458;48.958;8.284;2023-08-24T11:30:29;100019.34;;;35.49;37.18
30708;BME280;17458;48.958;8.284;2023-08-24T11:33:13;100010.41;;;35.44;38.04
30708;BME280;17458;48.958;8.284;2023-08-24T11:36:03;100009.16;;;35.66;38.06
30708;BME280;17458;48.958;8.284;2023-08-24T11:38:51;100007.91;;;36.03;37.39
30708;BME280;17458;48.958;8.284;2023-08-24T11:41:35;100001.34;;;36.35;36.13
30708;BME280;17458;48.958;8.284;2023-08-24T11:44:19;99992.03;;;36.06;37.08
30708;BME280;17458;48.958;8.284;2023-08-24T11:47:03;99995.09;;;35.86;36.64
30708;BME280;17458;48.958;8.284;2023-08-24T11:49:47;99996.38;;;36.40;36.11
30708;BME280;17458;48.958;8.284;2023-08-24T11:52:31;99984.22;;;36.13;36.34
30708;BME280;17458;48.958;8.284;2023-08-24T11:55:19;99984.41;;;36.26;36.37
30708;BME280;17458;48.958;8.284;2023-08-24T11:58:04;99972.47;;;35.79;37.04
30708;BME280;17458;48.958;8.284;2023-08-24T12:00:48;99957.75;;;36.09;37.23
30708;BME280;17458;48.958;8.284;2023-08-24T12:03:32;99953.91;;;36.11;37.24
30708;BME280;17458;48.958;8.284;2023-08-24T12:06:17;99949.78;;;36.34;35.99
30708;BME280;17458;48.958;8.284;2023-08-24T12:09:04;99943.38;;;36.18;38.04
30708;BME280;17458;48.958;8.284;2023-08-24T12:11:49;99941.47;;;36.34;37.35
30708;BME280;17458;48.958;8.284;2023-08-24T12:14:46;99945.13;;;36.35;36.96
30708;BME280;17458;48.958;8.284;2023-08-24T12:17:42;99938.16;;;36.86;36.67
30708;BME280;17458;48.958;8.284;2023-08-24T12:20:26;99943.16;;;36.65;36.48
30708;BME280;17458;48.958;8.284;2023-08-24T12:23:10;99933.56;;;36.56;35.86
30708;BME280;17458;48.958;8.284;2023-08-24T12:25:54;99924.94;;;36.91;35.26
30708;BME280;17458;48.958;8.284;2023-08-24T12:28:39;99914.59;;;37.48;36.01
30708;BME280;17458;48.958;8.284;2023-08-24T12:31:26;99913.56;;;37.37;36.63
30708;BME280;17458;48.958;8.284;2023-08-24T12:34:10;99903.19;;;36.71;36.53
30708;BME280;17458;48.958;8.284;2023-08-24T12:36:58;99909.66;;;36.55;38.19
30708;BME280;17458;48.958;8.284;2023-08-24T12:39:42;99907.16;;;37.08;37.80
30708;BME280;17458;48.958;8.284;2023-08-24T12:42:25;99907.13;;;37.36;37.19
30708;BME280;17458;48.958;8.284;2023-08-24T12:45:10;99897.53;;;36.86;37.82
30708;BME280;17458;48.958;8.284;2023-08-24T12:47:54;99889.72;;;37.34;37.98
30708;BME280;17458;48.958;8.284;2023-08-24T12:50:42;99899.16;;;37.58;37.33
30708;BME280;17458;48.958;8.284;2023-08-24T12:53:26;99899.44;;;37.68;35.49
30708;BME280;17458;48.958;8.284;2023-08-24T12:56:10;99893.50;;;37.60;36.41
30708;BME280;17458;48.958;8.284;2023-08-24T12:58:54;99887.97;;;37.33;35.90
30708;BME280;17458;48.958;8.284;2023-08-24T13:01:39;99887.53;;;37.39;36.39
30708;BME280;17458;48.958;8.284;2023-08-24T13:04:22;99887.50;;;37.80;36.68
30708;BME280;17458;48.958;8.284;2023-08-24T13:07:06;99885.81;;;37.24;36.42
30708;BME280;17458;48.958;8.284;2023-08-24T13:09:50;99874.94;;;37.21;36.84
30708;BME280;17458;48.958;8.284;2023-08-24T13:12:35;99866.56;;;37.35;36.43
30708;BME280;17458;48.958;8.284;2023-08-24T13:15:19;99863.06;;;37.33;36.57
30708;BME280;17458;48.958;8.284;2023-08-24T13:18:04;99852.66;;;37.49;37.06
30708;BME280;17458;48.958;8.284;2023-08-24T13:20:48;99848.47;;;37.17;37.40
30708;BME280;17458;48.958;8.284;2023-08-24T13:23:32;99852.97;;;37.32;36.29
30708;BME280;17458;48.958;8.284;2023-08-24T13:26:20;99844.28;;;37.24;36.73
30708;BME280;17458;48.958;8.284;2023-08-24T13:29:05;99838.50;;;37.00;37.19
30708;BME280;17458;48.958;8.284;2023-08-24T13:31:49;99827.78;;;35.80;38.82
30708;BME280;17458;48.958;8.284;2023-08-24T13:34:33;99823.00;;;36.12;39.38
30708;BME280;17458;48.958;8.284;2023-08-24T13:37:17;99832.16;;;35.99;39.80
30708;BME280;17458;48.958;8.284;2023-08-24T13:40:01;99841.44;;;36.12;38.90
30708;BME280;17458;48.958;8.284;2023-08-24T13:42:47;99869.69;;;36.03;39.05
30708;BME280;17458;48.958;8.284;2023-08-24T13:45:31;99890.13;;;35.54;40.97
30708;BME280;17458;48.958;8.284;2023-08-24T13:48:18;99886.13;;;34.97;42.68
30708;BME280;17458;48.958;8.284;2023-08-24T13:51:02;99911.44;;;35.05;42.08
30708;BME280;17458;48.958;8.284;2023-08-24T13:53:47;99930.81;;;34.88;43.81
30708;BME280;17458;48.958;8.284;2023-08-24T13:56:31;99940.63;;;34.26;46.21
30708;BME280;17458;48.958;8.284;2023-08-24T13:59:15;99961.63;;;34.11;47.51
30708;BME280;17458;48.958;8.284;2023-08-24T14:01:59;100020.97;;;33.47;48.09
30708;BME280;17458;48.958;8.284;2023-08-24T14:04:43;100082.97;;;32.35;50.78
30708;BME280;17458;48.958;8.284;2023-08-24T14:07:27;100104.03;;;31.46;52.14
30708;BME280;17458;48.958;8.284;2023-08-24T14:10:11;100108.44;;;31.50;54.81
30708;BME280;17458;48.958;8.284;2023-08-24T14:12:55;100060.47;;;30.14;59.78
30708;BME280;17458;48.958;8.284;2023-08-24T14:15:40;100022.63;;;29.15;63.38
30708;BME280;17458;48.958;8.284;2023-08-24T14:18:23;100029.53;;;28.35;67.05
30708;BME280;17458;48.958;8.284;2023-08-24T14:21:07;100050.84;;;28.21;69.99
30708;BME280;17458;48.958;8.284;2023-08-24T14:23:51;100037.25;;;27.82;71.57
30708;BME280;17458;48.958;8.284;2023-08-24T14:26:35;100000.44;;;27.99;71.04
30708;BME280;17458;48.958;8.284;2023-08-24T14:29:21;99994.53;;;27.80;72.52
30708;BME280;17458;48.958;8.284;2023-08-24T14:32:05;99973.13;;;27.99;72.20
30708;BME280;17458;48.958;8.284;2023-08-24T14:34:49;99960.63;;;27.54;72.88